createdAt,value
2023-01-05T00:05:03.592Z,73.2
2023-01-05T00:11:26.592Z,73.59
2023-01-05T00:17:46.652Z,73.96
2023-01-05T00:24:09.590Z,73.93
2023-01-05T00:30:29.594Z,74.02
2023-01-05T00:36:52.598Z,74.14
2023-01-05T00:43:12.579Z,74.06
2023-01-05T00:49:35.611Z,73.94
2023-01-05T00:55:55.643Z,73.85
2023-01-05T01:02:18.692Z,73.61
2023-01-05T01:08:38.625Z,73.39
2023-01-05T01:15:01.596Z,73.49
2023-01-05T01:21:21.586Z,73.25
2023-01-05T01:27:45.936Z,73.36
2023-01-05T01:34:05.616Z,73.3
2023-01-05T01:40:28.568Z,73.57
2023-01-05T01:46:48.593Z,73.68
2023-01-05T01:53:11.706Z,73.91
2023-01-05T01:59:31.634Z,73.99
2023-01-05T02:05:54.596Z,74.18
2023-01-05T02:12:14.629Z,74.42
2023-01-05T02:18:37.593Z,74.75
2023-01-05T02:24:57.595Z,74.95
2023-01-05T02:31:20.617Z,74.99
2023-01-05T02:37:40.597Z,75.06
2023-01-05T02:44:03.591Z,75.03
2023-01-05T02:50:23.652Z,75.46
2023-01-05T02:56:46.604Z,75.18
2023-01-05T03:03:06.708Z,74.77
2023-01-05T03:09:29.623Z,75.1
2023-01-05T03:15:49.641Z,75.13
2023-01-05T03:22:12.596Z,75.12
2023-01-05T03:28:32.618Z,75.27
2023-01-05T03:34:55.585Z,75.49
2023-01-05T03:41:15.583Z,75.86
2023-01-05T03:47:38.623Z,75.91
2023-01-05T03:53:58.613Z,76.05
2023-01-05T04:00:21.603Z,75.92
2023-01-05T04:06:41.654Z,75.85
2023-01-05T04:30:06.610Z,75.1
2023-01-05T04:36:29.581Z,75.46
2023-01-05T04:42:49.562Z,75.18
2023-01-05T04:49:12.625Z,75.37
2023-01-05T04:55:32.609Z,75.24
2023-01-05T05:01:55.722Z,75.31
2023-01-05T05:08:15.612Z,75.51
2023-01-05T05:14:38.612Z,75.51
2023-01-05T05:20:58.584Z,75.73
2023-01-05T05:27:21.618Z,75.99
2023-01-05T05:33:41.600Z,76.07
2023-01-05T05:40:04.615Z,77.2
2023-01-05T05:46:24.645Z,77.37
2023-01-05T05:52:47.562Z,78.79
2023-01-05T05:59:07.587Z,79.11
2023-01-05T06:05:30.593Z,79.23
2023-01-05T06:11:50.576Z,79.3
2023-01-05T06:18:13.563Z,78.64
2023-01-05T06:24:33.594Z,78.42
2023-01-05T06:30:56.599Z,78.06
2023-01-05T06:37:16.590Z,77.79
2023-01-05T06:43:39.632Z,77.72
2023-01-05T06:49:59.595Z,77.71
2023-01-05T06:56:22.572Z,77.55
2023-01-05T07:02:42.683Z,77.66
2023-01-05T07:09:05.627Z,77.67
2023-01-05T07:15:25.599Z,77.83
2023-01-05T07:21:53.339Z,77.83
2023-01-05T07:28:08.612Z,77.81
2023-01-05T07:34:31.600Z,77.62
2023-01-05T07:40:51.599Z,77.78
2023-01-05T07:47:14.599Z,77.87
2023-01-05T07:53:38.285Z,77.95
2023-01-05T07:59:57.618Z,77.89
2023-01-05T08:06:17.636Z,77.95
2023-01-05T08:12:40.605Z,77.94
2023-01-05T08:19:00.654Z,77.86
2023-01-05T08:25:23.631Z,77.59
2023-01-05T08:31:43.615Z,77.41
2023-01-05T08:38:06.619Z,77.57
2023-01-05T08:44:26.598Z,77.51
2023-01-05T08:50:49.588Z,77.57
2023-01-05T08:57:09.802Z,77.37
2023-01-05T09:03:32.895Z,77.36
2023-01-05T09:09:52.644Z,77.31
2023-01-05T09:16:21.376Z,77.05
2023-01-05T09:22:35.617Z,77.07
2023-01-05T09:28:58.592Z,77.16
2023-01-05T09:45:41.653Z,76.78
2023-01-05T09:52:04.573Z,78.77
2023-01-05T09:58:29.593Z,79.79
2023-01-05T10:04:47.823Z,79.26
2023-01-05T10:11:07.579Z,78.36
2023-01-05T10:17:41.587Z,77.61
2023-01-05T10:23:51.792Z,77.64
2023-01-05T10:30:14.597Z,76.91
2023-01-05T10:37:06.515Z,76.26
2023-01-05T10:42:57.702Z,75.87
2023-01-05T10:49:17.622Z,76.33
2023-01-05T10:55:40.650Z,75.46
2023-01-05T11:02:00.984Z,74.73
2023-01-05T11:08:23.593Z,73.88
2023-01-05T11:14:43.585Z,73.57
2023-01-05T11:21:06.773Z,73.23
2023-01-05T11:27:26.615Z,72.3
2023-01-05T11:33:49.595Z,71.64
2023-01-05T11:40:09.762Z,71.22
2023-01-05T11:46:32.645Z,70.74
2023-01-05T11:52:52.604Z,70.62
2023-01-05T11:59:15.707Z,70.79
2023-01-05T12:05:35.876Z,70.54
2023-01-05T12:11:58.577Z,70.06
2023-01-05T12:18:18.773Z,68.77
2023-01-05T12:24:41.595Z,67.36
2023-01-05T12:37:24.771Z,68.65
2023-01-05T12:43:44.590Z,69.12
2023-01-05T12:50:07.636Z,70
2023-01-05T12:56:27.707Z,70.36
2023-01-05T13:02:50.631Z,69.74
2023-01-05T13:09:10.616Z,69.16
2023-01-05T13:15:37.650Z,69.48
2023-01-05T13:21:53.596Z,70.35
2023-01-05T13:28:16.597Z,70.77
2023-01-05T13:34:36.692Z,70.99
2023-01-05T13:40:59.596Z,71.01
2023-01-05T13:47:23.704Z,71.18
2023-01-05T13:53:42.732Z,71.32
2023-01-05T14:00:08.169Z,71.85
2023-01-05T14:06:25.580Z,71.84
2023-01-05T14:12:45.745Z,72.25
2023-01-05T14:19:08.587Z,71.93
2023-01-05T14:25:28.602Z,72.17
2023-01-05T14:31:51.620Z,72.43
2023-01-05T14:38:11.584Z,72.7
2023-01-05T14:44:34.625Z,72.93
2023-01-05T15:01:01.793Z,73.35
2023-01-05T15:07:20.553Z,73.59
2023-01-05T15:13:46.663Z,73.71
2023-01-05T15:20:08.161Z,73.96
2023-01-05T15:26:29.581Z,73.94
2023-01-05T15:32:49.795Z,74.07
2023-01-05T15:39:12.626Z,74.67
2023-01-05T15:45:32.621Z,74.35
2023-01-05T15:51:55.585Z,74.51
2023-01-05T15:58:15.708Z,74.28
2023-01-05T16:04:38.704Z,74.9
2023-01-05T16:10:58.590Z,75.93
2023-01-05T16:17:21.772Z,77.41
2023-01-05T16:23:41.565Z,78.05
2023-01-05T16:30:04.638Z,80.3
2023-01-05T16:36:24.715Z,81.93
2023-01-05T16:42:47.586Z,83.92
2023-01-05T16:49:07.595Z,85.88
2023-01-05T16:55:30.710Z,86.87
2023-01-05T17:01:50.595Z,87.59
2023-01-05T17:08:13.576Z,87.81
2023-01-05T17:14:33.728Z,87.6
2023-01-05T17:20:56.590Z,87.59
2023-01-05T17:27:16.569Z,87.75
2023-01-05T17:33:39.759Z,87.7
2023-01-05T17:39:59.594Z,88
2023-01-05T17:46:22.654Z,88.31
2023-01-05T17:52:42.711Z,88.78
2023-01-05T17:59:05.888Z,88.91
2023-01-05T18:05:25.594Z,89.47
2023-01-05T18:11:49.381Z,89.89
2023-01-05T18:18:08.583Z,89.71
2023-01-05T18:24:31.608Z,89.9
2023-01-05T18:30:51.695Z,89.92
2023-01-05T18:37:21.195Z,89.88
2023-01-05T18:43:34.601Z,89.85
2023-01-05T18:49:57.715Z,90
2023-01-05T18:56:17.605Z,89.97
2023-01-05T19:02:40.611Z,89.89
2023-01-05T19:09:00.740Z,89.93
2023-01-05T19:15:23.594Z,89.84
2023-01-05T19:21:43.591Z,90.01
2023-01-05T19:28:06.729Z,89.99
2023-01-05T19:34:26.598Z,90.39
2023-01-05T19:40:49.625Z,90.72
2023-01-05T19:47:09.694Z,90.67
2023-01-05T19:53:32.562Z,90.84
2023-01-05T19:59:52.595Z,90.8
2023-01-05T20:16:57.608Z,91.04
2023-01-05T20:23:17.605Z,91.11
2023-01-05T20:29:40.642Z,91.3
2023-01-05T20:36:00.696Z,91.42
2023-01-05T20:42:23.580Z,91.43
2023-01-05T20:48:43.601Z,91.51
2023-01-05T20:55:06.711Z,91.51
2023-01-05T21:01:26.590Z,91.3
2023-01-05T21:07:49.597Z,91.34
2023-01-05T21:14:09.717Z,91.64
2023-01-05T21:20:32.639Z,91.78
2023-01-05T21:26:52.561Z,91.95
2023-01-05T21:33:15.744Z,92.09
2023-01-05T21:39:35.601Z,92.13
2023-01-05T21:45:58.631Z,92.06
2023-01-05T21:52:18.718Z,91.95
2023-01-05T21:58:41.587Z,91.97
2023-01-05T22:05:01.559Z,91.6
2023-01-05T22:11:24.726Z,91.62
2023-01-05T22:17:44.562Z,91.73
2023-01-05T22:24:07.594Z,91.8
2023-01-05T22:30:27.701Z,91.79
2023-01-05T22:36:50.571Z,91.75
2023-01-05T22:43:10.574Z,92.09
2023-01-05T22:49:33.688Z,92.24
2023-01-05T22:55:53.580Z,92.3
2023-01-05T23:20:10.698Z,91.87
2023-01-05T23:26:30.571Z,91.91
2023-01-05T23:32:53.607Z,91.95
2023-01-05T23:39:13.696Z,91.64
2023-01-05T23:45:36.640Z,91.58
2023-01-05T23:51:56.579Z,91.76
2023-01-05T23:58:19.711Z,91.93
